LEJR

Jerez Airport

Jerez de la Forntera, Spain
METAR LEJR 250230Z AUTO 13003KT 9999 NCD 13/13 Q1013
Observed Flight Rules
May-25 @ 02:30 UTC (31 minutes ago) Visual Flight Rules
Wind Visibility Clouds
130° at 3 knots 10,000+ meters
  • Clear skies
Temperatures Readings
Current 13°C / 55°F
Dewpoint 13°C / 55°F
Humidity 100%
Altimeter 29.91" Hg
Pressure 1013 hPa
Elevation 30
METAR LEJR 250230Z AUTO 13003KT 9999 NCD 13/13 Q1013
Observed Flight Rules
May-25 @ 02:30 UTC
(31 minutes ago)
VFR
Wind Visibility
130° at 3 knots 10,000+ meters
Clouds
  • Clear skies
Temperature Dewpoint
13°C / 55°F 13°C / 55°F
Humidity Altimeter Pressure
100% 29.91" Hg 1013 hPa